createdAt,value
2018-01-23T00:01:59.374Z,10.80
2018-01-23T00:04:27.589Z,11.20
2018-01-23T00:06:55.041Z,11.20
2018-01-23T00:09:22.459Z,11.00
2018-01-23T00:11:50.676Z,11.20
2018-01-23T00:14:18.119Z,11.10
2018-01-23T00:16:45.576Z,10.80
2018-01-23T00:19:13.750Z,10.60
2018-01-23T00:21:41.200Z,10.50
2018-01-23T00:24:08.641Z,10.70
2018-01-23T00:26:36.836Z,11.00
2018-01-23T00:29:04.269Z,11.00
2018-01-23T00:31:33.393Z,11.00
2018-01-23T00:34:00.868Z,11.00
2018-01-23T00:36:28.324Z,10.80
2018-01-23T00:38:55.747Z,10.30
2018-01-23T00:41:23.952Z,10.70
2018-01-23T00:43:51.389Z,10.70
2018-01-23T00:46:19.588Z,10.50
2018-01-23T00:48:47.020Z,10.50
2018-01-23T00:51:14.477Z,10.90
2018-01-23T00:53:41.905Z,11.00
2018-01-23T00:56:09.345Z,10.90
2018-01-23T00:58:36.776Z,10.60
2018-01-23T01:01:04.208Z,10.60
2018-01-23T01:03:31.646Z,11.00
2018-01-23T01:05:59.843Z,11.30
2018-01-23T01:08:27.271Z,11.30
2018-01-23T01:10:54.699Z,11.10
2018-01-23T01:13:22.144Z,10.70
2018-01-23T01:15:49.584Z,11.00
2018-01-23T01:18:17.036Z,10.90
2018-01-23T01:20:44.498Z,10.90
2018-01-23T01:23:11.929Z,10.80
2018-01-23T01:25:40.119Z,11.10
2018-01-23T01:28:07.557Z,11.10
2018-01-23T01:30:35.772Z,10.60
2018-01-23T01:33:03.208Z,10.50
2018-01-23T01:35:30.651Z,10.70
2018-01-23T01:37:58.069Z,10.60
2018-01-23T01:40:25.500Z,10.70
2018-01-23T01:42:52.945Z,11.10
2018-01-23T01:45:20.397Z,11.20
2018-01-23T01:47:48.605Z,11.10
2018-01-23T01:50:16.800Z,11.40
2018-01-23T01:52:44.237Z,11.40
2018-01-23T01:55:11.675Z,11.50
2018-01-23T01:57:39.112Z,11.60
2018-01-23T02:00:06.572Z,11.40
2018-01-23T02:02:34.035Z,11.30
2018-01-23T02:05:01.461Z,11.60
2018-01-23T02:07:28.906Z,11.70
2018-01-23T02:09:56.346Z,11.80
2018-01-23T02:12:23.780Z,11.80
2018-01-23T02:14:51.209Z,11.50
2018-01-23T02:17:19.413Z,11.40
2018-01-23T02:19:46.842Z,11.40
2018-01-23T02:22:15.046Z,11.90
2018-01-23T02:24:42.484Z,11.90
2018-01-23T02:27:09.928Z,12.20
2018-01-23T02:29:38.176Z,11.90
2018-01-23T02:32:05.617Z,11.80
2018-01-23T02:34:33.703Z,11.70
2018-01-23T02:37:01.160Z,11.40
2018-01-23T02:39:28.593Z,11.10
2018-01-23T02:41:56.084Z,11.20
2018-01-23T02:44:23.529Z,11.20
2018-01-23T02:46:50.982Z,11.20
2018-01-23T02:49:18.409Z,11.40
2018-01-23T02:51:45.867Z,11.20
2018-01-23T02:54:13.306Z,11.30
2018-01-23T02:56:40.733Z,10.70
2018-01-23T02:59:08.172Z,10.80
2018-01-23T03:01:35.616Z,10.70
2018-01-23T03:04:03.817Z,11.30
2018-01-23T03:06:31.246Z,11.30
2018-01-23T03:08:59.448Z,11.30
2018-01-23T03:11:26.888Z,11.30
2018-01-23T03:13:54.353Z,11.10
2018-01-23T03:16:21.787Z,10.50
2018-01-23T03:18:49.232Z,10.70
2018-01-23T03:21:16.652Z,10.90
2018-01-23T03:23:44.872Z,10.40
2018-01-23T03:26:12.295Z,10.30
2018-01-23T03:28:40.508Z,11.00
2018-01-23T03:31:07.938Z,11.00
2018-01-23T03:33:35.373Z,10.80
2018-01-23T03:36:03.573Z,10.90
2018-01-23T03:38:31.035Z,10.90
2018-01-23T03:40:58.468Z,11.00
2018-01-23T03:43:26.675Z,11.10
2018-01-23T03:45:54.167Z,11.10
2018-01-23T03:48:21.590Z,11.00
2018-01-23T03:50:49.024Z,10.90
2018-01-23T03:53:16.455Z,10.80
2018-01-23T03:55:43.888Z,10.50
2018-01-23T03:58:11.338Z,10.80
2018-01-23T04:00:39.528Z,11.00
2018-01-23T04:03:06.965Z,10.90
2018-01-23T04:05:34.408Z,11.00
2018-01-23T04:08:01.852Z,11.20
2018-01-23T04:10:29.336Z,10.80
2018-01-23T04:12:57.052Z,10.90
2018-01-23T04:15:25.262Z,11.10
2018-01-23T04:17:52.693Z,11.00
2018-01-23T04:20:20.895Z,11.10
2018-01-23T04:22:48.332Z,11.00
2018-01-23T04:27:49.679Z,11.00
2018-01-23T04:30:17.885Z,11.10
2018-01-23T04:32:45.312Z,11.10
2018-01-23T04:35:13.540Z,10.80
2018-01-23T04:37:40.968Z,10.80
2018-01-23T04:40:08.409Z,11.10
2018-01-23T04:42:36.614Z,11.10
2018-01-23T04:45:04.054Z,11.10
2018-01-23T04:47:31.491Z,11.10
2018-01-23T04:49:59.704Z,10.70
2018-01-23T04:52:27.112Z,10.70
2018-01-23T04:54:54.570Z,10.60
2018-01-23T04:57:21.994Z,10.80
2018-01-23T04:59:49.437Z,11.10
2018-01-23T05:02:16.876Z,10.50
2018-01-23T05:04:44.333Z,10.40
2018-01-23T05:07:11.768Z,10.60
2018-01-23T05:09:39.976Z,10.60
2018-01-23T05:12:07.420Z,10.60
2018-01-23T05:14:34.858Z,10.70
2018-01-23T05:17:03.068Z,10.90
2018-01-23T05:19:30.502Z,10.90
2018-01-23T05:21:57.935Z,10.80
2018-01-23T05:24:25.393Z,11.00
2018-01-23T05:26:52.845Z,10.70
2018-01-23T05:29:20.288Z,10.90
2018-01-23T05:31:47.725Z,11.00
2018-01-23T05:34:15.160Z,11.00
2018-01-23T05:36:42.596Z,10.90
2018-01-23T05:39:10.804Z,10.70
2018-01-23T05:41:38.232Z,10.70
2018-01-23T05:44:06.460Z,10.80
2018-01-23T05:46:34.020Z,10.70
2018-01-23T05:49:01.480Z,10.80
2018-01-23T05:51:28.921Z,10.40
2018-01-23T05:53:56.365Z,10.30
2018-01-23T05:56:23.797Z,10.50
2018-01-23T05:58:51.996Z,10.70
2018-01-23T06:01:19.436Z,10.70
2018-01-23T06:03:46.884Z,10.90
2018-01-23T06:06:15.108Z,10.60
2018-01-23T06:08:42.574Z,10.60
2018-01-23T06:11:10.013Z,10.80
2018-01-23T06:13:37.457Z,11.10
2018-01-23T06:16:04.901Z,11.20
2018-01-23T06:18:32.333Z,11.20
2018-01-23T06:20:59.769Z,11.10
2018-01-23T06:23:27.210Z,11.00
2018-01-23T06:25:54.956Z,11.20
2018-01-23T06:28:22.365Z,11.00
2018-01-23T06:30:49.812Z,11.00
2018-01-23T06:33:17.232Z,11.10
2018-01-23T06:35:44.705Z,11.20
2018-01-23T06:38:12.156Z,10.90
2018-01-23T06:40:39.593Z,11.00
2018-01-23T06:43:07.023Z,10.90
2018-01-23T06:45:35.253Z,10.90
2018-01-23T06:48:02.668Z,10.90
2018-01-23T06:50:30.125Z,10.80
2018-01-23T06:52:57.556Z,10.80
2018-01-23T06:55:24.990Z,10.60
2018-01-23T06:57:52.418Z,10.70
2018-01-23T07:00:19.866Z,10.90
2018-01-23T07:02:47.330Z,10.90
2018-01-23T07:05:14.769Z,11.00
2018-01-23T07:07:42.221Z,10.70
2018-01-23T07:10:10.428Z,10.60
2018-01-23T07:12:37.861Z,10.60
2018-01-23T07:15:05.296Z,11.00
2018-01-23T07:17:34.409Z,11.00
2018-01-23T07:20:01.858Z,11.00
2018-01-23T07:22:30.067Z,10.90
2018-01-23T07:24:57.488Z,10.90
2018-01-23T07:27:25.693Z,10.90
2018-01-23T07:29:53.137Z,10.90
2018-01-23T07:32:20.560Z,10.80
2018-01-23T07:34:48.012Z,10.90
2018-01-23T07:37:15.472Z,11.10
2018-01-23T07:39:43.489Z,11.00
2018-01-23T07:42:10.928Z,11.10
2018-01-23T07:44:39.137Z,11.00
2018-01-23T07:47:06.573Z,11.00
2018-01-23T07:49:35.149Z,11.00
2018-01-23T07:52:02.580Z,11.00
2018-01-23T07:54:30.026Z,11.20
2018-01-23T07:56:57.477Z,10.80
2018-01-23T07:59:24.938Z,11.10
2018-01-23T08:01:52.360Z,11.20
2018-01-23T08:04:19.800Z,11.20
2018-01-23T08:06:47.224Z,11.40
2018-01-23T08:09:14.657Z,11.10
2018-01-23T08:11:42.096Z,11.40
2018-01-23T08:14:09.527Z,11.10
2018-01-23T08:16:36.999Z,11.20
2018-01-23T08:19:04.419Z,10.80
2018-01-23T08:21:31.855Z,11.00
2018-01-23T08:23:59.285Z,11.30
2018-01-23T08:26:26.716Z,11.30
2018-01-23T08:28:54.156Z,11.40
2018-01-23T08:31:22.348Z,11.80
2018-01-23T08:33:49.784Z,11.80
2018-01-23T08:36:17.276Z,11.40
2018-01-23T08:38:44.764Z,11.40
2018-01-23T08:41:12.199Z,11.40
2018-01-23T08:43:39.636Z,11.70
2018-01-23T08:46:07.080Z,11.50
2018-01-23T08:48:35.276Z,11.30
2018-01-23T08:51:02.726Z,11.30
2018-01-23T08:53:30.169Z,11.50
2018-01-23T08:55:58.372Z,11.80
2018-01-23T08:58:25.801Z,11.80
2018-01-23T09:00:53.252Z,11.50
2018-01-23T09:03:21.445Z,11.70
2018-01-23T09:05:48.901Z,11.70
2018-01-23T09:08:17.088Z,11.20
2018-01-23T09:10:44.558Z,11.20
2018-01-23T09:13:12.716Z,11.20
2018-01-23T09:15:40.144Z,11.20
2018-01-23T09:18:08.349Z,11.50
2018-01-23T09:20:35.788Z,11.50
2018-01-23T09:23:03.991Z,11.50
2018-01-23T09:25:31.433Z,11.40
2018-01-23T09:27:58.869Z,11.20
2018-01-23T09:30:27.082Z,11.40
2018-01-23T09:32:54.521Z,11.40
2018-01-23T09:35:21.967Z,11.20
2018-01-23T09:37:50.170Z,11.50
2018-01-23T09:40:17.883Z,11.50
2018-01-23T09:42:45.324Z,11.30
2018-01-23T09:45:12.760Z,11.20
2018-01-23T09:47:40.214Z,11.50
2018-01-23T09:50:07.667Z,11.60
2018-01-23T09:52:35.591Z,11.70
2018-01-23T09:55:03.785Z,11.80
2018-01-23T09:57:31.242Z,11.80
2018-01-23T09:59:59.427Z,11.20
2018-01-23T10:02:26.855Z,11.10
2018-01-23T10:04:55.051Z,11.70
2018-01-23T10:07:22.480Z,11.60
2018-01-23T10:09:50.679Z,11.80
2018-01-23T10:12:18.362Z,11.80
2018-01-23T10:14:45.795Z,11.90
2018-01-23T10:17:13.996Z,11.50
2018-01-23T10:19:41.433Z,11.50
2018-01-23T10:22:09.645Z,11.80
2018-01-23T10:24:37.080Z,11.80
2018-01-23T10:27:04.505Z,11.80
2018-01-23T10:29:32.729Z,11.60
2018-01-23T10:32:00.167Z,11.60
2018-01-23T10:34:27.575Z,11.30
2018-01-23T10:36:55.013Z,11.40
2018-01-23T10:39:22.451Z,11.60
2018-01-23T10:41:49.888Z,12.00
2018-01-23T10:44:17.321Z,11.90
2018-01-23T10:46:45.524Z,11.80
2018-01-23T10:49:12.949Z,11.80
2018-01-23T10:51:41.169Z,11.90
2018-01-23T10:54:08.625Z,11.90
2018-01-23T10:56:36.057Z,11.80
2018-01-23T10:59:04.285Z,12.10
2018-01-23T11:01:37.415Z,12.00
2018-01-23T11:04:04.832Z,12.10
2018-01-23T11:06:32.370Z,12.20
2018-01-23T11:08:59.802Z,12.20
2018-01-23T11:11:27.242Z,12.20
2018-01-23T11:13:55.445Z,12.30
2018-01-23T11:16:22.880Z,12.30
2018-01-23T11:18:51.854Z,12.80
2018-01-23T11:21:20.080Z,12.50
2018-01-23T11:23:47.532Z,12.50
2018-01-23T11:26:14.982Z,12.40
2018-01-23T11:28:42.399Z,12.70
2018-01-23T11:31:09.836Z,12.30
2018-01-23T11:33:37.277Z,12.50
2018-01-23T11:36:04.704Z,12.30
2018-01-23T11:38:32.145Z,12.90
2018-01-23T11:41:00.349Z,13.00
2018-01-23T11:43:27.810Z,13.00
2018-01-23T11:45:55.233Z,13.30
2018-01-23T11:48:23.430Z,13.20
2018-01-23T11:50:50.864Z,13.20
2018-01-23T11:53:19.161Z,12.70
2018-01-23T11:55:46.588Z,12.70
2018-01-23T11:58:14.029Z,13.10
2018-01-23T12:00:41.460Z,13.30
2018-01-23T12:03:08.915Z,13.20
2018-01-23T12:05:36.342Z,13.00
2018-01-23T12:08:03.785Z,13.20
2018-01-23T12:10:31.988Z,13.20
2018-01-23T12:12:59.420Z,13.20
2018-01-23T12:15:27.616Z,13.10
2018-01-23T12:17:55.639Z,13.00
2018-01-23T12:20:23.073Z,12.70
2018-01-23T12:22:50.513Z,12.70
2018-01-23T12:25:17.962Z,12.50
2018-01-23T12:27:45.397Z,12.40
2018-01-23T12:30:13.589Z,13.30
2018-01-23T12:32:41.033Z,13.30
2018-01-23T12:35:09.215Z,13.60
2018-01-23T12:37:36.640Z,13.60
2018-01-23T12:40:04.077Z,13.40
2018-01-23T12:42:31.509Z,13.80
2018-01-23T12:44:58.943Z,13.40
2018-01-23T12:47:26.387Z,13.10
2018-01-23T12:49:54.585Z,13.30
2018-01-23T12:52:22.004Z,13.30
2018-01-23T12:54:51.200Z,13.50
2018-01-23T12:57:18.644Z,13.50
2018-01-23T12:59:47.602Z,13.20
2018-01-23T13:02:15.041Z,13.20
2018-01-23T13:04:42.473Z,13.20
2018-01-23T13:07:10.659Z,13.20
2018-01-23T13:09:38.863Z,13.30
2018-01-23T13:12:06.303Z,13.30
2018-01-23T13:14:34.480Z,13.10
2018-01-23T13:17:01.925Z,13.10
2018-01-23T13:19:30.129Z,13.40
2018-01-23T13:21:57.561Z,13.40
2018-01-23T13:24:24.997Z,13.50
2018-01-23T13:26:52.432Z,13.40
2018-01-23T13:29:19.868Z,13.50
2018-01-23T13:31:47.309Z,13.80
2018-01-23T13:34:14.740Z,13.80
2018-01-23T13:36:42.947Z,13.50
2018-01-23T13:39:10.387Z,13.50
2018-01-23T13:41:37.829Z,13.30
2018-01-23T13:44:06.063Z,14.40
2018-01-23T13:46:33.480Z,14.40
2018-01-23T13:49:00.935Z,15.50
2018-01-23T13:51:28.360Z,15.60
2018-01-23T13:53:55.805Z,16.50
2018-01-23T13:56:23.241Z,16.80
2018-01-23T13:58:50.679Z,17.40
2018-01-23T14:01:18.108Z,17.00
2018-01-23T14:03:46.325Z,16.50
2018-01-23T14:06:13.752Z,16.50
2018-01-23T14:08:41.204Z,15.90
2018-01-23T14:11:08.632Z,15.30
2018-01-23T14:13:36.996Z,15.10
2018-01-23T14:16:04.432Z,15.10
2018-01-23T14:18:31.868Z,14.80
2018-01-23T14:20:59.303Z,15.20
2018-01-23T14:23:27.489Z,14.80
2018-01-23T14:25:54.981Z,14.80
2018-01-23T14:28:22.429Z,14.60
2018-01-23T14:30:49.884Z,15.10
2018-01-23T14:33:17.316Z,15.30
2018-01-23T14:35:44.748Z,14.90
2018-01-23T14:38:12.968Z,14.10
2018-01-23T14:40:40.391Z,14.00
2018-01-23T14:43:08.584Z,13.40
2018-01-23T14:45:36.025Z,13.40
2018-01-23T14:48:04.234Z,12.90
2018-01-23T14:50:31.680Z,12.90
2018-01-23T14:52:59.101Z,12.50
2018-01-23T14:55:26.536Z,12.90
2018-01-23T14:57:54.105Z,12.70
2018-01-23T15:00:21.557Z,12.90
2018-01-23T15:02:49.020Z,13.00
2018-01-23T15:05:16.417Z,13.00
2018-01-23T15:07:44.616Z,12.80
2018-01-23T15:10:12.056Z,12.80
2018-01-23T15:12:39.484Z,12.70
2018-01-23T15:15:07.692Z,13.00
2018-01-23T15:17:35.133Z,13.00
2018-01-23T15:20:03.344Z,12.60
2018-01-23T15:22:30.800Z,12.50
2018-01-23T15:24:58.246Z,12.50
2018-01-23T15:27:25.683Z,12.70
2018-01-23T15:29:53.897Z,12.40
2018-01-23T15:32:21.336Z,12.40
2018-01-23T15:34:48.776Z,12.40
2018-01-23T15:37:16.245Z,12.50
2018-01-23T15:39:44.433Z,12.80
2018-01-23T15:42:11.867Z,12.80
2018-01-23T15:44:39.305Z,12.70
2018-01-23T15:47:07.509Z,12.30
2018-01-23T15:49:34.948Z,12.20
2018-01-23T15:52:03.154Z,12.30
2018-01-23T15:54:30.614Z,12.30
2018-01-23T15:56:58.040Z,12.20
2018-01-23T15:59:26.233Z,12.70
2018-01-23T16:01:53.673Z,12.60
2018-01-23T16:04:21.889Z,12.40
2018-01-23T16:06:49.315Z,12.40
2018-01-23T16:09:16.769Z,12.40
2018-01-23T16:11:44.213Z,12.20
2018-01-23T16:14:12.424Z,12.20
2018-01-23T16:16:39.861Z,12.20
2018-01-23T16:19:07.297Z,12.40
2018-01-23T16:21:35.493Z,12.10
2018-01-23T16:24:02.917Z,12.10
2018-01-23T16:26:30.361Z,12.10
2018-01-23T16:28:57.788Z,12.10
2018-01-23T16:31:25.293Z,12.30
2018-01-23T16:33:52.723Z,12.10
2018-01-23T16:36:20.167Z,12.10
2018-01-23T16:38:47.597Z,12.20
2018-01-23T16:41:15.033Z,12.20
2018-01-23T16:43:43.270Z,12.20
2018-01-23T16:46:10.712Z,12.20
2018-01-23T16:48:38.132Z,11.80
2018-01-23T16:51:05.569Z,11.90
2018-01-23T16:53:33.000Z,12.50
2018-01-23T16:56:00.449Z,12.40
2018-01-23T16:58:27.898Z,12.20
2018-01-23T17:00:55.333Z,12.10
2018-01-23T17:03:22.779Z,12.40
2018-01-23T17:05:50.220Z,12.30
2018-01-23T17:08:18.436Z,12.40
2018-01-23T17:10:45.894Z,12.40
2018-01-23T17:13:13.337Z,12.10
2018-01-23T17:15:40.773Z,12.10
2018-01-23T17:18:08.983Z,12.10
2018-01-23T17:20:36.440Z,12.10
2018-01-23T17:23:03.873Z,12.10
2018-01-23T17:25:31.315Z,12.30
2018-01-23T17:27:59.538Z,12.00
2018-01-23T17:30:26.968Z,12.00
2018-01-23T17:32:54.402Z,12.10
2018-01-23T17:35:22.692Z,12.20
2018-01-23T17:37:50.892Z,12.50
2018-01-23T17:40:18.324Z,12.40
2018-01-23T17:42:45.761Z,12.20
2018-01-23T17:45:13.188Z,12.30
2018-01-23T17:47:40.632Z,12.60
2018-01-23T17:50:08.098Z,12.30
2018-01-23T17:52:35.500Z,12.30
2018-01-23T17:55:03.716Z,12.30
2018-01-23T17:57:31.161Z,12.30
2018-01-23T17:59:58.586Z,12.20
2018-01-23T18:02:26.808Z,12.10
2018-01-23T18:04:54.236Z,12.00
2018-01-23T18:07:21.700Z,12.00
2018-01-23T18:09:49.885Z,12.30
2018-01-23T18:12:17.327Z,12.20
2018-01-23T18:14:45.512Z,12.00
2018-01-23T18:17:12.961Z,12.00
2018-01-23T18:19:41.161Z,12.00
2018-01-23T18:22:08.605Z,12.00
2018-01-23T18:24:36.360Z,12.20
2018-01-23T18:27:03.797Z,12.00
2018-01-23T18:29:31.996Z,12.10
2018-01-23T18:31:59.437Z,12.10
2018-01-23T18:34:27.632Z,12.00
2018-01-23T18:36:55.076Z,12.00
2018-01-23T18:39:22.513Z,11.80
2018-01-23T18:41:50.726Z,12.00
2018-01-23T18:44:18.149Z,12.00
2018-01-23T18:46:46.704Z,12.10
2018-01-23T18:49:14.200Z,12.10
2018-01-23T18:51:42.396Z,11.80
2018-01-23T18:54:09.833Z,11.80
2018-01-23T18:56:38.754Z,12.00
2018-01-23T18:59:06.192Z,12.00
2018-01-23T19:01:33.624Z,11.70
2018-01-23T19:04:01.068Z,11.80
2018-01-23T19:06:28.505Z,12.00
2018-01-23T19:08:55.952Z,12.00
2018-01-23T19:11:23.412Z,12.20
2018-01-23T19:13:50.868Z,12.40
2018-01-23T19:16:18.303Z,12.30
2018-01-23T19:18:45.748Z,12.00
2018-01-23T19:21:13.172Z,12.10
2018-01-23T19:23:40.608Z,12.00
2018-01-23T19:26:08.089Z,12.00
2018-01-23T19:28:35.505Z,12.20
2018-01-23T19:31:02.945Z,12.50
2018-01-23T19:33:30.406Z,12.30
2018-01-23T19:35:57.837Z,12.20
2018-01-23T19:38:26.037Z,11.50
2018-01-23T19:40:53.478Z,11.50
2018-01-23T19:43:21.693Z,11.60
2018-01-23T19:45:49.119Z,11.60
2018-01-23T19:48:17.397Z,11.50
2018-01-23T19:50:44.843Z,11.40
2018-01-23T19:53:13.042Z,11.50
2018-01-23T19:55:40.484Z,11.50
2018-01-23T19:58:08.697Z,11.60
2018-01-23T20:00:36.116Z,11.60
2018-01-23T20:03:03.557Z,11.50
2018-01-23T20:05:31.763Z,11.60
2018-01-23T20:07:59.212Z,11.60
2018-01-23T20:10:26.645Z,11.80
2018-01-23T20:12:54.872Z,11.90
2018-01-23T20:15:22.296Z,11.90
2018-01-23T20:17:49.753Z,12.20
2018-01-23T20:20:17.195Z,11.90
2018-01-23T20:22:45.406Z,12.10
2018-01-23T20:25:12.832Z,12.00
2018-01-23T20:27:41.040Z,12.00
2018-01-23T20:30:08.468Z,12.00
2018-01-23T20:32:36.671Z,11.80
2018-01-23T20:35:04.116Z,11.80
2018-01-23T20:37:31.576Z,11.90
2018-01-23T20:39:59.037Z,12.00
2018-01-23T20:42:26.480Z,12.10
2018-01-23T20:44:53.912Z,12.10
2018-01-23T20:47:21.359Z,12.10
2018-01-23T20:49:48.786Z,12.20
2018-01-23T20:52:16.220Z,12.00
2018-01-23T20:54:43.665Z,12.00
2018-01-23T20:57:11.120Z,11.80
2018-01-23T20:59:38.566Z,11.70
2018-01-23T21:02:06.803Z,11.90
2018-01-23T21:04:34.219Z,11.90
2018-01-23T21:07:01.683Z,11.80
2018-01-23T21:09:29.876Z,11.90
2018-01-23T21:11:57.312Z,11.90
2018-01-23T21:14:24.769Z,11.80
2018-01-23T21:16:52.244Z,12.00
2018-01-23T21:19:19.656Z,12.00
2018-01-23T21:21:47.852Z,12.20
2018-01-23T21:24:15.296Z,12.20
2018-01-23T21:26:43.976Z,11.60
2018-01-23T21:29:11.405Z,11.60
2018-01-23T21:31:38.852Z,11.30
2018-01-23T21:34:06.290Z,11.30
2018-01-23T21:36:33.727Z,11.70
2018-01-23T21:39:01.162Z,11.90
2018-01-23T21:41:28.604Z,11.70
2018-01-23T21:43:56.048Z,11.40
2018-01-23T21:46:23.513Z,11.50
2018-01-23T21:48:50.953Z,11.70
2018-01-23T21:51:18.400Z,11.90
2018-01-23T21:53:45.831Z,11.70
2018-01-23T21:56:13.264Z,11.50
2018-01-23T21:58:41.479Z,11.60
2018-01-23T22:01:08.908Z,11.60
2018-01-23T22:03:37.129Z,11.60
2018-01-23T22:06:04.572Z,11.60
2018-01-23T22:08:32.008Z,12.00
2018-01-23T22:10:59.446Z,12.20
2018-01-23T22:13:27.664Z,12.10
2018-01-23T22:15:55.103Z,12.10
2018-01-23T22:18:22.536Z,12.10
2018-01-23T22:20:50.747Z,12.30
2018-01-23T22:23:18.201Z,12.30
2018-01-23T22:25:45.650Z,12.40
2018-01-23T22:28:13.090Z,12.50
2018-01-23T22:30:41.304Z,12.80
2018-01-23T22:33:09.145Z,12.80
2018-01-23T22:35:36.593Z,12.50
2018-01-23T22:38:04.807Z,12.60
2018-01-23T22:40:32.236Z,12.60
2018-01-23T22:42:59.660Z,12.70
2018-01-23T22:45:27.101Z,12.60
2018-01-23T22:47:54.554Z,12.60
2018-01-23T22:50:22.002Z,12.50
2018-01-23T22:52:49.445Z,12.70
2018-01-23T22:55:16.888Z,12.80
2018-01-23T22:57:44.345Z,12.60
2018-01-23T23:00:11.810Z,12.40
2018-01-23T23:02:39.234Z,12.40
2018-01-23T23:05:07.441Z,12.70
2018-01-23T23:07:34.880Z,12.60
2018-01-23T23:10:02.317Z,12.50
2018-01-23T23:12:30.504Z,13.00
2018-01-23T23:14:58.711Z,13.00
2018-01-23T23:17:26.212Z,12.90
2018-01-23T23:19:53.669Z,13.30
2018-01-23T23:22:21.088Z,13.30
2018-01-23T23:24:48.530Z,13.30
2018-01-23T23:27:15.988Z,13.00
2018-01-23T23:29:43.425Z,12.80
2018-01-23T23:32:11.622Z,12.70
2018-01-23T23:34:39.049Z,12.70
2018-01-23T23:37:07.264Z,12.90
2018-01-23T23:39:34.700Z,12.80
2018-01-23T23:42:02.146Z,12.80
2018-01-23T23:44:30.356Z,13.00
2018-01-23T23:46:57.786Z,13.00
2018-01-23T23:49:25.246Z,13.00
2018-01-23T23:51:53.423Z,12.90
2018-01-23T23:54:20.876Z,12.90
2018-01-23T23:56:48.320Z,12.80
2018-01-23T23:59:16.573Z,13.20
